createdAt,value
2024-01-30T00:00:04.538Z,39.40
2024-01-30T00:02:33.908Z,33.17
2024-01-30T00:05:02.591Z,21.13
2024-01-30T00:07:31.082Z,29.67
2024-01-30T00:09:59.790Z,17.70
2024-01-30T00:12:28.636Z,22.85
2024-01-30T00:14:57.312Z,21.42
2024-01-30T00:17:27.512Z,24.20
2024-01-30T00:19:56.092Z,19.40
2024-01-30T00:22:24.951Z,21.42
2024-01-30T00:24:53.529Z,26.85
2024-01-30T00:27:22.222Z,22.70
2024-01-30T00:29:50.560Z,23.23
2024-01-30T00:32:20.315Z,20.30
2024-01-30T00:34:50.287Z,20.23
2024-01-30T00:37:19.118Z,27.55
2024-01-30T00:39:47.619Z,25.42
2024-01-30T00:42:16.291Z,26.55
2024-01-30T00:44:44.758Z,23.95
2024-01-30T00:47:13.106Z,20.25
2024-01-30T00:49:41.641Z,24.48
2024-01-30T00:52:11.593Z,19.40
2024-01-30T00:54:40.213Z,22.90
2024-01-30T00:57:08.730Z,15.20
2024-01-30T00:59:37.190Z,19.05
2024-01-30T01:02:05.912Z,17.98
2024-01-30T01:04:34.386Z,18.55
2024-01-30T01:07:02.960Z,22.25
2024-01-30T01:09:32.766Z,25.08
2024-01-30T01:12:01.070Z,33.22
2024-01-30T01:14:29.525Z,36.03
2024-01-30T01:16:57.972Z,42.20
2024-01-30T01:19:26.539Z,32.53
2024-01-30T01:21:55.291Z,21.58
2024-01-30T01:24:23.616Z,18.30
2024-01-30T01:26:53.428Z,24.70
2024-01-30T01:29:29.527Z,17.27
2024-01-30T01:31:58.351Z,24.25
2024-01-30T01:34:30.176Z,21.77
2024-01-30T01:36:59.425Z,20.25
2024-01-30T01:39:27.830Z,19.95
2024-01-30T01:41:57.622Z,18.48
2024-01-30T01:44:25.994Z,27.15
2024-01-30T01:46:55.950Z,22.40
2024-01-30T01:49:26.527Z,17.88
2024-01-30T01:51:58.284Z,26.85
2024-01-30T01:54:28.933Z,20.70
2024-01-30T01:56:58.828Z,24.77
2024-01-30T01:59:28.455Z,22.67
2024-01-30T02:01:58.481Z,18.02
2024-01-30T02:04:27.100Z,15.90
2024-01-30T02:06:55.742Z,18.50
2024-01-30T02:09:24.141Z,16.83
2024-01-30T02:11:52.811Z,15.75
2024-01-30T02:14:22.638Z,15.10
2024-01-30T02:16:51.041Z,14.55
2024-01-30T02:19:19.507Z,12.00
2024-01-30T02:21:49.557Z,15.15
2024-01-30T02:24:18.056Z,17.13
2024-01-30T02:26:46.696Z,18.40
2024-01-30T02:29:15.117Z,19.67
2024-01-30T02:31:43.675Z,20.35
2024-01-30T02:34:12.130Z,12.50
2024-01-30T02:36:40.827Z,17.38
2024-01-30T02:39:10.820Z,23.73
2024-01-30T02:41:39.132Z,20.63
2024-01-30T02:44:07.529Z,23.27
2024-01-30T02:46:35.931Z,27.50
2024-01-30T02:49:04.524Z,24.35
2024-01-30T02:51:32.947Z,23.23
2024-01-30T02:54:01.207Z,21.50
2024-01-30T02:56:30.823Z,22.10
2024-01-30T02:58:59.273Z,26.75
2024-01-30T03:01:27.725Z,35.00
2024-01-30T03:03:56.555Z,27.65
2024-01-30T03:06:25.489Z,31.90
2024-01-30T03:08:53.911Z,24.58
2024-01-30T03:11:22.241Z,24.08
2024-01-30T03:13:51.996Z,20.58
2024-01-30T03:16:20.394Z,22.65
2024-01-30T03:18:49.640Z,24.73
2024-01-30T03:21:18.077Z,21.27
2024-01-30T03:23:46.423Z,30.55
2024-01-30T03:26:16.605Z,24.13
2024-01-30T03:28:44.980Z,20.77
2024-01-30T03:31:18.379Z,17.52
2024-01-30T03:33:46.933Z,16.52
2024-01-30T03:36:15.504Z,27.70
2024-01-30T03:38:43.985Z,18.15
2024-01-30T03:41:12.718Z,22.27
2024-01-30T03:43:41.275Z,14.63
2024-01-30T03:46:10.136Z,16.90
2024-01-30T03:48:40.621Z,15.05
2024-01-30T03:51:09.249Z,18.40
2024-01-30T03:53:37.656Z,15.57
2024-01-30T03:56:06.637Z,14.07
2024-01-30T03:58:34.978Z,17.10
2024-01-30T04:01:03.605Z,15.95
2024-01-30T04:03:32.113Z,16.10
2024-01-30T04:06:02.348Z,14.80
2024-01-30T04:08:30.847Z,21.08
2024-01-30T04:10:59.231Z,17.15
2024-01-30T04:13:27.838Z,16.98
2024-01-30T04:15:57.759Z,22.90
2024-01-30T04:18:26.292Z,22.83
2024-01-30T04:20:54.591Z,21.50
2024-01-30T04:23:24.396Z,21.10
2024-01-30T04:25:52.903Z,21.08
2024-01-30T04:28:21.406Z,19.27
2024-01-30T04:30:49.963Z,19.08
2024-01-30T04:33:19.573Z,20.65
2024-01-30T04:35:47.982Z,17.70
2024-01-30T04:38:16.565Z,17.88
2024-01-30T04:40:46.405Z,16.00
2024-01-30T04:43:15.786Z,16.00
2024-01-30T04:45:44.707Z,19.08
2024-01-30T04:48:13.083Z,20.05
2024-01-30T04:50:41.826Z,17.27
2024-01-30T04:53:10.320Z,16.48
2024-01-30T04:55:38.624Z,18.73
2024-01-30T04:58:09.068Z,17.40
2024-01-30T05:00:37.564Z,14.05
2024-01-30T05:03:06.563Z,16.92
2024-01-30T05:05:35.270Z,15.55
2024-01-30T05:08:03.624Z,15.93
2024-01-30T05:10:32.171Z,13.68
2024-01-30T05:13:00.861Z,22.58
2024-01-30T05:15:30.683Z,13.75
2024-01-30T05:17:59.266Z,16.92
2024-01-30T05:20:29.147Z,16.92
2024-01-30T05:22:57.963Z,17.65
2024-01-30T05:25:26.773Z,21.77
2024-01-30T05:27:56.505Z,17.90
2024-01-30T05:30:24.996Z,20.02
2024-01-30T05:32:54.767Z,24.67
2024-01-30T05:35:23.327Z,16.67
2024-01-30T05:37:52.131Z,22.27
2024-01-30T05:40:20.475Z,16.70
2024-01-30T05:42:48.893Z,18.65
2024-01-30T05:45:17.403Z,18.13
2024-01-30T05:47:45.789Z,22.00
2024-01-30T05:50:16.249Z,21.15
2024-01-30T05:52:44.620Z,25.48
2024-01-30T05:55:13.826Z,21.88
2024-01-30T05:57:42.569Z,19.92
2024-01-30T06:00:11.433Z,23.98
2024-01-30T06:02:39.908Z,26.83
2024-01-30T06:05:09.368Z,21.48
2024-01-30T06:07:39.372Z,31.13
2024-01-30T06:10:10.110Z,39.63
2024-01-30T06:12:39.166Z,22.30
2024-01-30T06:15:08.781Z,34.38
2024-01-30T06:17:37.470Z,27.55
2024-01-30T06:20:07.138Z,27.58
2024-01-30T06:22:35.611Z,21.00
2024-01-30T06:25:06.079Z,34.58
2024-01-30T06:27:34.458Z,30.73
2024-01-30T06:30:03.525Z,30.23
2024-01-30T06:32:35.593Z,24.35
2024-01-30T06:35:04.373Z,21.52
2024-01-30T06:37:32.754Z,26.40
2024-01-30T06:40:01.320Z,18.30
2024-01-30T06:42:31.230Z,21.35
2024-01-30T06:44:59.681Z,21.73
2024-01-30T06:47:29.770Z,24.60
2024-01-30T06:49:58.315Z,23.10
2024-01-30T06:52:26.928Z,19.00
2024-01-30T06:54:55.695Z,17.60
2024-01-30T06:57:24.259Z,24.75
2024-01-30T06:59:54.084Z,21.60
2024-01-30T07:02:22.729Z,15.00
2024-01-30T07:04:51.716Z,24.23
2024-01-30T07:07:20.437Z,24.15
2024-01-30T07:09:51.078Z,21.63
2024-01-30T07:12:19.601Z,26.52
2024-01-30T07:14:47.916Z,23.45
2024-01-30T07:17:17.810Z,19.50
2024-01-30T07:19:46.237Z,23.48
2024-01-30T07:22:14.703Z,23.73
2024-01-30T07:24:48.372Z,23.50
2024-01-30T07:27:18.965Z,22.48
2024-01-30T07:29:47.793Z,24.55
2024-01-30T07:32:17.573Z,25.17
2024-01-30T07:34:53.731Z,19.98
2024-01-30T07:37:32.304Z,19.48
2024-01-30T07:40:00.759Z,25.25
2024-01-30T07:42:29.204Z,27.48
2024-01-30T07:44:57.804Z,28.20
2024-01-30T07:47:27.896Z,21.30
2024-01-30T07:49:56.866Z,20.67
2024-01-30T07:52:25.353Z,21.15
2024-01-30T07:54:53.860Z,22.42
2024-01-30T07:57:22.366Z,26.05
2024-01-30T07:59:50.841Z,21.58
2024-01-30T08:02:19.339Z,22.88
2024-01-30T08:04:50.882Z,20.60
2024-01-30T08:07:19.794Z,39.33
2024-01-30T08:09:48.410Z,31.40
2024-01-30T08:12:16.962Z,31.35
2024-01-30T08:14:45.370Z,27.20
2024-01-30T08:17:13.952Z,25.00
2024-01-30T08:19:42.497Z,22.40
2024-01-30T08:22:12.345Z,23.08
2024-01-30T08:24:41.692Z,24.55
2024-01-30T08:27:10.664Z,25.00
2024-01-30T08:29:38.996Z,24.75
2024-01-30T08:32:08.449Z,26.40
2024-01-30T08:34:37.130Z,23.80
2024-01-30T08:37:06.088Z,22.67
2024-01-30T08:39:36.003Z,20.67
2024-01-30T08:42:04.467Z,19.17
2024-01-30T08:44:32.936Z,19.15
2024-01-30T08:47:01.396Z,20.42
2024-01-30T08:49:29.968Z,19.20
2024-01-30T08:51:58.808Z,18.70
2024-01-30T08:54:27.717Z,33.33
2024-01-30T08:56:59.500Z,39.53
2024-01-30T08:59:28.216Z,34.53
2024-01-30T09:02:06.879Z,34.88
2024-01-30T09:04:41.028Z,25.20
2024-01-30T09:07:11.711Z,21.48
2024-01-30T09:09:41.709Z,27.63
2024-01-30T09:12:12.941Z,27.42
2024-01-30T09:14:42.589Z,26.52
2024-01-30T09:17:11.499Z,28.83
2024-01-30T09:19:40.029Z,27.70
2024-01-30T09:22:09.183Z,27.08
2024-01-30T09:24:37.732Z,27.63
2024-01-30T09:27:06.508Z,26.35
2024-01-30T09:29:37.780Z,26.25
2024-01-30T09:32:08.070Z,29.65
2024-01-30T09:34:37.246Z,25.52
2024-01-30T09:37:06.201Z,26.35
2024-01-30T09:39:34.724Z,32.20
2024-01-30T09:42:07.680Z,20.73
2024-01-30T09:44:40.149Z,23.08
2024-01-30T09:47:09.146Z,23.63
2024-01-30T09:49:37.864Z,18.17
2024-01-30T09:52:09.129Z,23.55
2024-01-30T09:54:38.661Z,21.77
2024-01-30T09:57:08.177Z,14.60
2024-01-30T09:59:38.047Z,14.95
2024-01-30T10:02:06.807Z,17.60
2024-01-30T10:04:35.261Z,17.90
2024-01-30T10:07:05.024Z,15.00
2024-01-30T10:09:36.172Z,13.23
2024-01-30T10:12:05.903Z,14.27
2024-01-30T10:14:34.307Z,12.88
2024-01-30T10:17:11.734Z,16.63
2024-01-30T10:19:45.998Z,13.73
2024-01-30T10:22:14.552Z,14.07
2024-01-30T10:24:43.198Z,16.70
2024-01-30T10:27:12.430Z,18.33
2024-01-30T10:29:40.916Z,19.48
2024-01-30T10:32:11.082Z,17.30
2024-01-30T10:34:39.498Z,20.15
2024-01-30T10:37:13.981Z,21.98
2024-01-30T10:39:43.648Z,14.98
2024-01-30T10:42:14.918Z,17.92
2024-01-30T10:44:53.788Z,18.77
2024-01-30T10:47:29.786Z,23.10
2024-01-30T10:49:59.274Z,23.40
2024-01-30T10:52:29.036Z,18.17
2024-01-30T10:54:58.950Z,15.85
2024-01-30T10:57:29.273Z,23.45
2024-01-30T11:00:00.093Z,17.67
2024-01-30T11:02:30.642Z,19.25
2024-01-30T11:05:01.075Z,17.63
2024-01-30T11:07:31.610Z,17.48
2024-01-30T11:10:04.788Z,17.42
2024-01-30T11:12:35.620Z,15.48
2024-01-30T11:15:06.304Z,15.43
2024-01-30T11:17:53.423Z,17.33
2024-01-30T11:20:23.936Z,17.30
2024-01-30T11:22:54.806Z,15.13
2024-01-30T11:25:24.446Z,11.80
2024-01-30T11:27:54.454Z,15.40
2024-01-30T11:30:27.086Z,18.52
2024-01-30T11:33:06.521Z,15.50
2024-01-30T11:35:36.320Z,17.33
2024-01-30T11:38:06.178Z,18.85
2024-01-30T11:40:36.169Z,22.23
2024-01-30T11:43:06.205Z,15.45
2024-01-30T11:45:35.234Z,19.95
2024-01-30T11:48:06.229Z,17.67
2024-01-30T11:50:35.902Z,16.52
2024-01-30T11:53:05.094Z,19.17
2024-01-30T11:55:35.277Z,18.67
2024-01-30T11:58:05.472Z,17.90
2024-01-30T12:00:34.979Z,19.33
2024-01-30T12:03:08.468Z,15.95
2024-01-30T12:05:37.698Z,20.35
2024-01-30T12:08:07.190Z,17.33
2024-01-30T12:10:35.855Z,15.85
2024-01-30T12:13:04.818Z,14.50
2024-01-30T12:15:33.450Z,18.80
2024-01-30T12:18:10.116Z,15.88
2024-01-30T12:20:38.786Z,14.07
2024-01-30T12:23:07.347Z,16.77
2024-01-30T12:25:35.942Z,15.00
2024-01-30T12:28:05.303Z,16.48
2024-01-30T12:30:34.218Z,17.83
2024-01-30T12:33:05.820Z,18.13
2024-01-30T12:35:38.637Z,17.52
2024-01-30T12:38:10.496Z,18.98
2024-01-30T12:40:41.840Z,20.08
2024-01-30T12:43:10.955Z,16.27
2024-01-30T12:45:39.491Z,15.75
2024-01-30T12:48:08.884Z,17.55
2024-01-30T12:50:38.676Z,17.80
2024-01-30T12:53:07.359Z,18.73
2024-01-30T12:55:36.041Z,16.42
2024-01-30T12:58:04.588Z,15.82
2024-01-30T13:00:33.127Z,17.67
2024-01-30T13:03:01.532Z,20.63
2024-01-30T13:05:30.260Z,15.82
2024-01-30T13:08:00.110Z,17.38
2024-01-30T13:10:28.810Z,17.58
2024-01-30T13:12:57.335Z,15.45
2024-01-30T13:15:25.890Z,15.02
2024-01-30T13:17:55.520Z,15.57
2024-01-30T13:20:24.004Z,16.75
2024-01-30T13:22:52.474Z,15.50
2024-01-30T13:25:22.384Z,19.38
2024-01-30T13:27:51.085Z,19.40
2024-01-30T13:30:19.690Z,13.73
2024-01-30T13:32:48.084Z,15.43
2024-01-30T13:35:16.775Z,13.52
2024-01-30T13:37:45.326Z,14.93
2024-01-30T13:40:15.594Z,13.57
2024-01-30T13:42:45.874Z,17.30
2024-01-30T13:45:14.210Z,14.40
2024-01-30T13:47:43.245Z,19.10
2024-01-30T13:50:16.186Z,17.20
2024-01-30T13:52:45.568Z,14.25
2024-01-30T13:55:15.268Z,15.75
2024-01-30T13:57:46.056Z,14.25
2024-01-30T14:00:17.756Z,16.65
2024-01-30T14:02:46.382Z,13.52
2024-01-30T14:05:15.804Z,16.90
2024-01-30T14:07:46.257Z,19.75
2024-01-30T14:10:15.821Z,15.30
2024-01-30T14:12:46.515Z,15.27
2024-01-30T14:15:23.644Z,16.73
2024-01-30T14:17:57.431Z,15.38
2024-01-30T14:20:26.273Z,17.77
2024-01-30T14:22:56.794Z,13.95
2024-01-30T14:25:25.804Z,15.73
2024-01-30T14:27:55.822Z,16.58
2024-01-30T14:30:24.711Z,16.92
2024-01-30T14:32:53.555Z,16.77
2024-01-30T14:35:22.740Z,19.52
2024-01-30T14:37:51.606Z,20.02
2024-01-30T14:40:20.990Z,27.98
2024-01-30T14:42:49.717Z,25.90
2024-01-30T14:45:20.013Z,21.88
2024-01-30T14:47:48.823Z,24.92
2024-01-30T14:50:18.271Z,19.83
2024-01-30T14:52:46.905Z,23.65
2024-01-30T14:55:15.570Z,22.65
2024-01-30T14:57:46.454Z,17.10
2024-01-30T15:00:17.244Z,18.23
2024-01-30T15:02:48.507Z,14.82
2024-01-30T15:05:17.784Z,22.63
2024-01-30T15:07:46.672Z,18.10
2024-01-30T15:10:15.331Z,16.70
2024-01-30T15:12:43.879Z,15.52
2024-01-30T15:15:12.387Z,14.52
2024-01-30T15:17:41.289Z,17.90
2024-01-30T15:20:12.066Z,12.18
2024-01-30T15:22:41.651Z,11.32
2024-01-30T15:25:10.126Z,14.45
2024-01-30T15:27:38.655Z,13.65
2024-01-30T15:30:08.216Z,16.40
2024-01-30T15:32:38.002Z,18.52
2024-01-30T15:35:07.538Z,27.48
2024-01-30T15:37:37.499Z,29.83
2024-01-30T15:40:07.939Z,38.78
2024-01-30T15:42:36.490Z,42.90
2024-01-30T15:45:06.813Z,36.00
2024-01-30T15:47:35.268Z,46.88
2024-01-30T15:50:03.935Z,43.15
2024-01-30T15:52:32.680Z,44.72
2024-01-30T15:55:02.613Z,56.92
2024-01-30T15:57:31.262Z,54.60
2024-01-30T15:59:59.832Z,52.17
2024-01-30T16:02:28.927Z,97.80
2024-01-30T16:04:57.728Z,46.25
2024-01-30T16:07:26.291Z,54.40
2024-01-30T16:09:54.635Z,67.32
2024-01-30T16:12:46.226Z,46.60
2024-01-30T16:15:34.232Z,34.45
2024-01-30T16:18:20.995Z,19.17
2024-01-30T16:21:09.745Z,17.48
2024-01-30T16:23:57.817Z,18.20
2024-01-30T16:26:44.721Z,26.58
2024-01-30T16:29:36.493Z,23.58
2024-01-30T16:32:23.755Z,32.53
2024-01-30T16:35:13.987Z,23.48
2024-01-30T16:38:02.947Z,19.58
2024-01-30T16:40:51.195Z,25.83
2024-01-30T16:43:38.110Z,23.75
2024-01-30T16:46:27.485Z,17.52
2024-01-30T16:49:15.298Z,19.10
2024-01-30T16:52:05.911Z,17.05
2024-01-30T16:54:54.668Z,17.48
2024-01-30T16:57:42.538Z,27.95
2024-01-30T17:00:31.557Z,33.22
2024-01-30T17:03:20.687Z,44.60
2024-01-30T17:06:13.278Z,33.58
2024-01-30T17:08:41.967Z,32.40
2024-01-30T17:11:28.950Z,30.35
2024-01-30T17:14:17.912Z,36.70
2024-01-30T17:17:11.024Z,31.30
2024-01-30T17:20:05.213Z,36.08
2024-01-30T17:22:53.866Z,32.17
2024-01-30T17:25:43.967Z,22.13
2024-01-30T17:28:31.972Z,25.17
2024-01-30T17:31:19.049Z,34.15
2024-01-30T17:34:06.774Z,31.52
2024-01-30T17:36:56.487Z,22.10
2024-01-30T17:39:43.608Z,23.55
2024-01-30T17:42:32.348Z,27.15
2024-01-30T17:45:22.518Z,19.38
2024-01-30T17:48:10.050Z,20.70
2024-01-30T17:51:00.355Z,24.35
2024-01-30T17:53:50.545Z,22.98
2024-01-30T17:56:37.393Z,21.55
2024-01-30T17:59:25.325Z,22.63
2024-01-30T18:01:53.839Z,23.92
2024-01-30T18:04:22.388Z,21.50
2024-01-30T18:06:55.225Z,22.83
2024-01-30T18:09:26.706Z,24.13
2024-01-30T18:11:55.396Z,30.85
2024-01-30T18:14:24.155Z,32.40
2024-01-30T18:16:52.613Z,29.73
2024-01-30T18:19:22.434Z,51.05
2024-01-30T18:21:51.039Z,41.10
2024-01-30T18:24:22.431Z,39.60
2024-01-30T18:26:52.638Z,19.38
2024-01-30T18:29:20.913Z,35.47
2024-01-30T18:31:49.305Z,33.08
2024-01-30T18:34:17.952Z,68.07
2024-01-30T18:36:46.347Z,34.65
2024-01-30T18:39:14.675Z,33.42
2024-01-30T18:41:43.046Z,22.38
2024-01-30T18:44:12.755Z,18.90
2024-01-30T18:46:41.140Z,28.13
2024-01-30T18:49:09.734Z,27.15
2024-01-30T18:51:38.363Z,25.92
2024-01-30T18:54:06.922Z,27.08
2024-01-30T18:56:35.412Z,29.75
2024-01-30T18:59:03.876Z,34.63
2024-01-30T19:01:34.111Z,28.48
2024-01-30T19:04:06.039Z,26.63
2024-01-30T19:06:34.556Z,34.92
2024-01-30T19:09:02.965Z,27.42
2024-01-30T19:11:31.474Z,31.17
2024-01-30T19:13:59.848Z,37.30
2024-01-30T19:16:28.285Z,43.28
2024-01-30T19:18:58.351Z,28.27
2024-01-30T19:21:26.824Z,39.33
2024-01-30T19:23:56.908Z,40.75
2024-01-30T19:26:25.364Z,39.33
2024-01-30T19:28:53.775Z,37.92
2024-01-30T19:31:22.352Z,34.20
2024-01-30T19:33:51.927Z,37.60
2024-01-30T19:36:21.757Z,42.00
2024-01-30T19:38:50.029Z,38.45
2024-01-30T19:41:18.395Z,48.90
2024-01-30T19:43:46.930Z,42.53
2024-01-30T19:46:16.072Z,32.97
2024-01-30T19:48:44.612Z,39.53
2024-01-30T19:51:13.262Z,41.35
2024-01-30T19:53:43.046Z,52.70
2024-01-30T19:56:11.458Z,50.22
2024-01-30T19:58:39.843Z,49.13
2024-01-30T20:01:08.254Z,51.10
2024-01-30T20:03:36.843Z,50.47
2024-01-30T20:06:06.122Z,48.25
2024-01-30T20:08:35.733Z,43.38
2024-01-30T20:11:15.245Z,50.20
2024-01-30T20:13:43.930Z,44.08
2024-01-30T20:16:12.548Z,41.03
2024-01-30T20:18:40.944Z,40.33
2024-01-30T20:21:09.706Z,48.78
2024-01-30T20:23:39.681Z,37.63
2024-01-30T20:26:09.512Z,43.45
2024-01-30T20:28:38.067Z,31.52
2024-01-30T20:31:06.985Z,31.40
2024-01-30T20:33:35.786Z,32.25
2024-01-30T20:36:06.847Z,37.20
2024-01-30T20:38:36.983Z,28.17
2024-01-30T20:41:09.989Z,29.10
2024-01-30T20:43:40.477Z,25.10
2024-01-30T20:46:09.263Z,25.55
2024-01-30T20:48:37.921Z,18.88
2024-01-30T20:51:06.608Z,17.55
2024-01-30T20:53:35.210Z,17.45
2024-01-30T20:56:03.590Z,15.23
2024-01-30T20:58:32.093Z,17.20
2024-01-30T21:01:02.099Z,9.20
2024-01-30T21:03:33.039Z,10.73
2024-01-30T21:06:01.849Z,13.48
2024-01-30T21:08:30.294Z,9.82
2024-01-30T21:11:00.668Z,10.15
2024-01-30T21:13:31.752Z,10.82
2024-01-30T21:16:01.566Z,14.48
2024-01-30T21:18:30.034Z,20.45
2024-01-30T21:20:59.495Z,18.45
2024-01-30T21:23:28.317Z,15.85
2024-01-30T21:25:56.787Z,13.10
2024-01-30T21:28:26.437Z,14.60
2024-01-30T21:30:55.059Z,15.88
2024-01-30T21:33:24.912Z,16.75
2024-01-30T21:35:56.765Z,14.35
2024-01-30T21:38:26.689Z,12.10
2024-01-30T21:40:55.612Z,11.20
2024-01-30T21:43:24.109Z,7.18
2024-01-30T21:45:52.817Z,11.68
2024-01-30T21:48:21.293Z,8.30
2024-01-30T21:50:51.196Z,13.13
2024-01-30T21:53:19.661Z,18.02
2024-01-30T21:55:48.059Z,14.00
2024-01-30T21:58:16.424Z,14.63
2024-01-30T22:00:45.004Z,13.27
2024-01-30T22:03:13.360Z,9.32
2024-01-30T22:05:41.645Z,14.77
2024-01-30T22:08:11.357Z,12.52
2024-01-30T22:10:39.974Z,12.32
2024-01-30T22:13:08.458Z,12.35
2024-01-30T22:15:38.088Z,11.98
2024-01-30T22:18:07.237Z,12.05
2024-01-30T22:20:35.832Z,14.65
2024-01-30T22:23:04.511Z,19.38
2024-01-30T22:25:34.507Z,17.35
2024-01-30T22:28:02.853Z,13.35
2024-01-30T22:30:31.299Z,17.77
2024-01-30T22:33:00.106Z,19.75
2024-01-30T22:35:28.956Z,21.50
2024-01-30T22:37:57.660Z,24.17
2024-01-30T22:40:26.069Z,27.17
2024-01-30T22:42:56.221Z,25.00
2024-01-30T22:45:24.633Z,19.83
2024-01-30T22:47:53.146Z,23.25
2024-01-30T22:50:21.544Z,25.70
2024-01-30T22:52:51.162Z,24.35
2024-01-30T22:55:19.828Z,26.33
2024-01-30T22:57:49.036Z,22.48
2024-01-30T23:00:26.742Z,24.20
2024-01-30T23:02:55.099Z,16.50
2024-01-30T23:05:23.499Z,21.35
2024-01-30T23:07:52.738Z,23.60
2024-01-30T23:10:21.567Z,24.55
2024-01-30T23:12:50.012Z,21.95
2024-01-30T23:15:19.780Z,22.00
2024-01-30T23:17:48.728Z,19.60
2024-01-30T23:20:17.246Z,24.20
2024-01-30T23:22:45.765Z,27.45
2024-01-30T23:25:14.093Z,26.27
2024-01-30T23:27:42.487Z,28.35
2024-01-30T23:30:11.704Z,22.35
2024-01-30T23:32:43.413Z,22.95
2024-01-30T23:35:13.455Z,20.92
2024-01-30T23:37:42.059Z,23.23
2024-01-30T23:40:13.667Z,24.25
2024-01-30T23:42:42.621Z,20.23
2024-01-30T23:45:11.653Z,23.63
2024-01-30T23:47:41.596Z,25.13
2024-01-30T23:50:10.710Z,26.33
2024-01-30T23:52:43.312Z,22.33
2024-01-30T23:55:12.102Z,17.38
2024-01-30T23:57:40.854Z,20.52
